Portada
METAR-TAF:

METAR-TAF

Aeroports :

Wallis, França

latitud: 13-14S, longitud: 176-10W, altitud: 23 m

Observació

L'informe es va fer fa 20 minuts, a les 11:00 UTC
Vent 7 kt del Est
Temperatura 28°C
Humitat 84%
Pressió 1013 hPa
Visibilitat 10 km o més

METAR: NLWW 251100Z AUTO 10007KT 9999 NCD 28/25 Q1013 TEMPO SHRA FEW020TCU

Hora: 23:20 (11:20 UTC)

Pronòstic

L'informe es va fer fa 6 hores i 20 minuts, a les 05:00 UTC
Pronòstic vàlid del 25 a les 06 UTC al 26 a les 06 UTC
Vent 10 kt del Est/Sud-Est
Visibilitat 10 km o més
Escasses núvols a una alçada de 2500 ft
Temporalment
l' 25 a les 06 UTC al 25 a les 12 UTC
Escasses núvols a una alçada de 2000 ft, Cumulus congestus.
xàfecs de pluja

TAF: NLWW 250500Z 2506/2606 11010KT 9999 FEW025 TEMPO 2506/2512 SHRA FEW020TCU

Observacions i pronòstics meteorològics de més de 4000 aeroports (METAR i TAF).

Les estacions disponibles són els punts grocs i vermells al mapa.

Posi el ratolí al punt desitjat per veure el nom de l'estació.

Feu clic per veure les observacions i els pronòstics meteorològics.

Per canviar el mapa: feu clic els botons verds amb una creu de color negre per apropar; al botó verd amb un guió per allunyar la imatge; o en les fletxes verdes per a mapes adjacents.


METAR-TAF: